createdAt,value
2017-10-25T00:01:09.429Z,100062.00
2017-10-25T00:03:43.974Z,100063.23
2017-10-25T00:06:18.505Z,100051.86
2017-10-25T00:08:53.912Z,100052.26
2017-10-25T00:11:28.135Z,100061.86
2017-10-25T00:14:02.783Z,100056.25
2017-10-25T00:16:37.407Z,100062.80
2017-10-25T00:19:12.794Z,100053.49
2017-10-25T00:21:47.357Z,100058.11
2017-10-25T00:24:21.967Z,100058.25
2017-10-25T00:26:56.395Z,100051.00
2017-10-25T00:29:30.934Z,100050.23
2017-10-25T00:32:05.379Z,100057.83
2017-10-25T00:34:39.784Z,100053.92
2017-10-25T00:37:14.327Z,100056.66
2017-10-25T00:39:48.762Z,100050.14
2017-10-25T00:42:23.126Z,100048.38
2017-10-25T00:44:57.705Z,100045.17
2017-10-25T00:47:32.189Z,100050.67
2017-10-25T00:50:08.870Z,100048.25
2017-10-25T00:52:43.432Z,100050.36
2017-10-25T00:55:17.583Z,100047.84
2017-10-25T00:57:51.866Z,100054.56
2017-10-25T01:00:26.075Z,100057.88
2017-10-25T01:03:00.711Z,100061.75
2017-10-25T01:05:35.120Z,100057.09
2017-10-25T01:08:09.682Z,100057.01
2017-10-25T01:10:44.187Z,100053.91
2017-10-25T01:13:19.446Z,100054.95
2017-10-25T01:15:53.706Z,100062.03
2017-10-25T01:18:28.294Z,100074.23
2017-10-25T01:21:02.569Z,100067.54
2017-10-25T01:23:36.822Z,100066.41
2017-10-25T01:26:10.947Z,100065.39
2017-10-25T01:28:45.296Z,100054.39
2017-10-25T01:31:19.391Z,100059.46
2017-10-25T01:33:53.573Z,100048.78
2017-10-25T01:36:28.181Z,100049.70
2017-10-25T01:39:02.325Z,100047.05
2017-10-25T01:41:36.410Z,100045.83
2017-10-25T01:44:10.626Z,100042.37
2017-10-25T01:46:44.760Z,100039.25
2017-10-25T01:49:18.921Z,100046.05
2017-10-25T01:51:53.298Z,100047.64
2017-10-25T01:54:27.529Z,100048.39
2017-10-25T01:57:02.595Z,100039.82
2017-10-25T01:59:36.894Z,100050.94
2017-10-25T02:02:12.118Z,100049.59
2017-10-25T02:04:46.793Z,100045.81
2017-10-25T02:07:21.659Z,100040.30
2017-10-25T02:09:56.202Z,100039.41
2017-10-25T02:12:31.090Z,100034.65
2017-10-25T02:15:07.899Z,100034.67
2017-10-25T02:17:42.382Z,100036.73
2017-10-25T02:20:16.923Z,100036.53
2017-10-25T02:22:52.013Z,100016.41
2017-10-25T02:25:26.603Z,100029.83
2017-10-25T02:28:01.034Z,99993.17
2017-10-25T02:30:35.494Z,100026.55
2017-10-25T02:33:09.895Z,100027.22
2017-10-25T02:35:44.349Z,100023.36
2017-10-25T02:38:18.859Z,100020.25
2017-10-25T02:40:53.334Z,100017.98
2017-10-25T02:43:28.519Z,100016.05
2017-10-25T02:46:03.103Z,100015.17
2017-10-25T02:48:37.528Z,100015.17
2017-10-25T02:51:11.962Z,100010.43
2017-10-25T02:53:46.542Z,100005.33
2017-10-25T02:56:21.063Z,100010.51
2017-10-25T02:58:55.599Z,100021.72
2017-10-25T03:01:30.499Z,100009.23
2017-10-25T03:04:05.119Z,100010.23
2017-10-25T03:06:39.590Z,100014.11
2017-10-25T03:09:14.747Z,100006.96
2017-10-25T03:11:49.381Z,100015.44
2017-10-25T03:14:23.906Z,100020.80
2017-10-25T03:16:58.369Z,100011.11
2017-10-25T03:19:32.656Z,100017.61
2017-10-25T03:22:07.034Z,100024.47
2017-10-25T03:24:41.536Z,100016.97
2017-10-25T03:27:15.999Z,100017.31
2017-10-25T03:29:50.283Z,100014.33
2017-10-25T03:32:25.083Z,100015.73
2017-10-25T03:34:59.676Z,100018.09
2017-10-25T03:37:34.139Z,99993.84
2017-10-25T03:40:08.774Z,100021.46
2017-10-25T03:42:43.187Z,100032.64
2017-10-25T03:45:17.570Z,100029.53
2017-10-25T03:47:52.112Z,100033.16
2017-10-25T03:50:26.581Z,100014.55
2017-10-25T03:53:01.587Z,100016.12
2017-10-25T03:55:36.247Z,100030.73
2017-10-25T03:58:10.758Z,100015.48
2017-10-25T04:00:45.198Z,100019.92
2017-10-25T04:03:19.658Z,100016.72
2017-10-25T04:05:54.830Z,100014.92
2017-10-25T04:08:29.268Z,100007.14
2017-10-25T04:11:03.866Z,100011.01
2017-10-25T04:13:38.379Z,99999.03
2017-10-25T04:16:12.838Z,99987.61
2017-10-25T04:18:47.472Z,99999.27
2017-10-25T04:21:21.970Z,99998.12
2017-10-25T04:23:56.498Z,99999.31
2017-10-25T04:26:30.948Z,100006.16
2017-10-25T04:29:05.479Z,100002.25
2017-10-25T04:31:40.711Z,100002.89
2017-10-25T04:34:15.246Z,99993.12
2017-10-25T04:36:49.687Z,99996.46
2017-10-25T04:39:24.236Z,99992.94
2017-10-25T04:41:58.679Z,99990.19
2017-10-25T04:44:33.103Z,99994.06
2017-10-25T04:47:07.600Z,99989.48
2017-10-25T04:49:42.051Z,99994.64
2017-10-25T04:52:16.711Z,99998.59
2017-10-25T04:54:51.135Z,100002.47
2017-10-25T04:57:25.592Z,99995.16
2017-10-25T05:00:00.023Z,99990.30
2017-10-25T05:02:34.858Z,99992.78
2017-10-25T05:05:11.522Z,99992.12
2017-10-25T05:07:46.036Z,99972.20
2017-10-25T05:10:20.498Z,99987.14
2017-10-25T05:12:54.955Z,99987.63
2017-10-25T05:15:29.374Z,99984.98
2017-10-25T05:18:03.783Z,99975.98
2017-10-25T05:20:38.831Z,99972.47
2017-10-25T05:23:13.438Z,99973.05
2017-10-25T05:25:48.974Z,99967.44
2017-10-25T05:28:23.603Z,99968.38
2017-10-25T05:30:58.099Z,99972.30
2017-10-25T05:33:32.580Z,99974.97
2017-10-25T05:36:07.033Z,99973.50
2017-10-25T05:38:41.574Z,99973.45
2017-10-25T05:41:17.001Z,99972.67
2017-10-25T05:43:52.118Z,99972.61
2017-10-25T05:46:26.722Z,99982.95
2017-10-25T05:49:01.202Z,99986.44
2017-10-25T05:51:35.780Z,100003.57
2017-10-25T05:54:10.308Z,100002.95
2017-10-25T05:56:44.761Z,100002.72
2017-10-25T05:59:19.315Z,100015.64
2017-10-25T06:01:53.718Z,100009.63
2017-10-25T06:04:28.432Z,100013.50
2017-10-25T06:07:02.848Z,100017.30
2017-10-25T06:09:37.946Z,100017.27
2017-10-25T06:12:12.602Z,100020.25
2017-10-25T06:14:47.006Z,100015.40
2017-10-25T06:17:22.140Z,100016.58
2017-10-25T06:19:56.514Z,100031.59
2017-10-25T06:22:30.952Z,100038.06
2017-10-25T06:25:11.387Z,100022.17
2017-10-25T06:27:46.039Z,100037.39
2017-10-25T06:30:20.637Z,100029.79
2017-10-25T06:32:56.084Z,100030.22
2017-10-25T06:35:30.714Z,100035.39
2017-10-25T06:38:05.259Z,100033.41
2017-10-25T06:40:39.759Z,100030.20
2017-10-25T06:43:14.126Z,100029.72
2017-10-25T06:45:48.319Z,100028.22
2017-10-25T06:48:22.876Z,100030.04
2017-10-25T06:50:57.371Z,100026.83
2017-10-25T06:53:31.918Z,100020.39
2017-10-25T06:56:06.331Z,100021.33
2017-10-25T06:58:40.900Z,100028.11
2017-10-25T07:01:15.526Z,100021.54
2017-10-25T07:03:50.235Z,100025.89
2017-10-25T07:06:24.687Z,100025.78
2017-10-25T07:08:59.117Z,100032.95
2017-10-25T07:11:33.587Z,100041.03
2017-10-25T07:14:08.186Z,100040.78
2017-10-25T07:16:42.628Z,100024.38
2017-10-25T07:19:17.092Z,100041.78
2017-10-25T07:21:51.538Z,100039.63
2017-10-25T07:24:26.051Z,100047.45
2017-10-25T07:27:01.171Z,100041.92
2017-10-25T07:29:35.704Z,100035.47
2017-10-25T07:32:10.387Z,100038.17
2017-10-25T07:34:44.793Z,100046.36
2017-10-25T07:37:19.210Z,100042.19
2017-10-25T07:39:53.698Z,100047.82
2017-10-25T07:42:28.262Z,100038.56
2017-10-25T07:47:42.513Z,100040.67
2017-10-25T07:50:17.556Z,100040.72
2017-10-25T07:52:51.983Z,100043.13
2017-10-25T07:55:26.792Z,100037.56
2017-10-25T07:58:01.271Z,100036.30
2017-10-25T08:00:35.939Z,100034.81
2017-10-25T08:03:10.958Z,100038.33
2017-10-25T08:05:45.404Z,100037.06
2017-10-25T08:08:19.939Z,100029.94
2017-10-25T08:10:54.370Z,100036.73
2017-10-25T08:13:28.947Z,100045.39
2017-10-25T08:16:03.445Z,100041.86
2017-10-25T08:18:37.954Z,100037.15
2017-10-25T08:21:12.423Z,100041.69
2017-10-25T08:23:46.918Z,100047.96
2017-10-25T08:26:21.327Z,100045.66
2017-10-25T08:28:55.758Z,100032.67
2017-10-25T08:31:30.250Z,100046.98
2017-10-25T08:34:04.447Z,100053.52
2017-10-25T08:36:39.315Z,100053.83
2017-10-25T08:39:14.011Z,100038.80
2017-10-25T08:41:48.890Z,100031.30
2017-10-25T08:44:23.428Z,100040.94
2017-10-25T08:46:57.559Z,100041.37
2017-10-25T08:49:32.118Z,100024.20
2017-10-25T08:52:06.628Z,100034.30
2017-10-25T08:54:41.142Z,100028.25
2017-10-25T08:57:15.626Z,100033.27
2017-10-25T08:59:50.118Z,100023.84
2017-10-25T09:02:24.299Z,100024.88
2017-10-25T09:04:58.918Z,100017.92
2017-10-25T09:07:33.467Z,100021.11
2017-10-25T09:10:09.837Z,100027.97
2017-10-25T09:12:44.407Z,100028.70
2017-10-25T09:15:18.892Z,100022.30
2017-10-25T09:17:53.522Z,100032.63
2017-10-25T09:20:27.939Z,100034.45
2017-10-25T09:23:02.207Z,100036.48
2017-10-25T09:25:36.677Z,100039.74
2017-10-25T09:28:11.214Z,100038.04
2017-10-25T09:30:45.631Z,100037.28
2017-10-25T09:33:20.213Z,100044.15
2017-10-25T09:35:54.739Z,100042.72
2017-10-25T09:38:29.272Z,100050.83
2017-10-25T09:41:03.732Z,100052.02
2017-10-25T09:43:38.211Z,100051.11
2017-10-25T09:46:12.697Z,100061.50
2017-10-25T09:48:47.361Z,100052.12
2017-10-25T09:51:21.776Z,100058.02
2017-10-25T09:53:56.165Z,100065.06
2017-10-25T09:56:30.654Z,100056.73
2017-10-25T09:59:05.295Z,100067.50
2017-10-25T10:01:39.794Z,100050.91
2017-10-25T10:04:14.332Z,100062.89
2017-10-25T10:06:48.978Z,100055.08
2017-10-25T10:09:23.388Z,100049.92
2017-10-25T10:11:58.077Z,100038.11
2017-10-25T10:14:32.599Z,100034.30
2017-10-25T10:17:06.998Z,100038.77
2017-10-25T10:19:41.406Z,100029.73
2017-10-25T10:22:15.935Z,100038.88
2017-10-25T10:24:50.403Z,100030.57
2017-10-25T10:27:24.867Z,100033.55
2017-10-25T10:29:59.335Z,100023.09
2017-10-25T10:32:33.845Z,100030.03
2017-10-25T10:35:14.532Z,100025.49
2017-10-25T10:37:49.048Z,100018.83
2017-10-25T10:40:23.501Z,100025.06
2017-10-25T10:42:57.889Z,100020.04
2017-10-25T10:45:34.020Z,100010.41
2017-10-25T10:48:08.558Z,100022.17
2017-10-25T10:50:43.032Z,100016.00
2017-10-25T10:53:17.632Z,99999.98
2017-10-25T10:55:52.156Z,100006.22
2017-10-25T10:58:26.653Z,100009.68
2017-10-25T11:01:00.703Z,100004.76
2017-10-25T11:03:35.154Z,100005.83
2017-10-25T11:06:09.622Z,99992.05
2017-10-25T11:08:44.636Z,100000.27
2017-10-25T11:11:19.253Z,100001.52
2017-10-25T11:13:53.871Z,99996.30
2017-10-25T11:16:28.386Z,99993.99
2017-10-25T11:19:03.761Z,99994.13
2017-10-25T11:21:38.303Z,99980.48
2017-10-25T11:24:12.851Z,99998.73
2017-10-25T11:26:47.544Z,99994.41
2017-10-25T11:29:22.077Z,99992.15
2017-10-25T11:31:56.986Z,99991.70
2017-10-25T11:34:31.486Z,99990.58
2017-10-25T11:37:05.938Z,99983.28
2017-10-25T11:39:40.489Z,99984.55
2017-10-25T11:42:14.963Z,99982.20
2017-10-25T11:44:49.646Z,99977.67
2017-10-25T11:47:24.313Z,99970.55
2017-10-25T11:49:58.840Z,99968.15
2017-10-25T11:52:34.199Z,99969.59
2017-10-25T11:55:09.021Z,99957.31
2017-10-25T11:57:43.622Z,99956.21
2017-10-25T12:00:19.029Z,99950.28
2017-10-25T12:02:53.443Z,99951.78
2017-10-25T12:05:27.864Z,99954.72
2017-10-25T12:08:02.452Z,99945.81
2017-10-25T12:10:37.084Z,99944.41
2017-10-25T12:13:11.646Z,99943.75
2017-10-25T12:15:45.987Z,99933.16
2017-10-25T12:18:20.534Z,99933.17
2017-10-25T12:20:55.065Z,99924.83
2017-10-25T12:23:29.618Z,99919.50
2017-10-25T12:26:04.103Z,99917.14
2017-10-25T12:28:38.695Z,99908.86
2017-10-25T12:31:13.269Z,99912.09
2017-10-25T12:33:47.744Z,99902.37
2017-10-25T12:36:22.002Z,99915.53
2017-10-25T12:38:56.618Z,99911.29
2017-10-25T12:41:34.811Z,99914.02
2017-10-25T12:44:11.055Z,99906.16
2017-10-25T12:46:46.127Z,99903.98
2017-10-25T12:49:21.398Z,99905.59
2017-10-25T12:51:56.661Z,99903.58
2017-10-25T12:54:32.872Z,99900.06
2017-10-25T12:57:07.438Z,99896.63
2017-10-25T12:59:42.091Z,99898.75
2017-10-25T13:02:16.550Z,99893.89
2017-10-25T13:04:51.306Z,99903.10
2017-10-25T13:07:25.902Z,99902.78
2017-10-25T13:10:00.471Z,99904.77
2017-10-25T13:12:48.347Z,99867.91
2017-10-25T13:15:57.594Z,99899.24
2017-10-25T13:18:41.359Z,99896.69
2017-10-25T13:21:15.837Z,99899.88
2017-10-25T13:23:50.423Z,99877.65
2017-10-25T13:26:24.845Z,99886.70
2017-10-25T13:28:59.383Z,99895.47
2017-10-25T13:31:33.877Z,99898.07
2017-10-25T13:34:08.425Z,99894.78
2017-10-25T13:36:42.887Z,99881.48
2017-10-25T13:39:17.408Z,99873.53
2017-10-25T13:41:51.826Z,99877.47
2017-10-25T13:44:26.510Z,99879.21
2017-10-25T13:47:00.914Z,99874.92
2017-10-25T13:49:35.358Z,99880.30
2017-10-25T13:52:09.851Z,99874.95
2017-10-25T13:54:45.301Z,99878.56
2017-10-25T13:57:19.791Z,99875.30
2017-10-25T13:59:54.358Z,99871.28
2017-10-25T14:02:28.592Z,99876.39
2017-10-25T14:05:08.973Z,99875.32
2017-10-25T14:07:44.182Z,99873.44
2017-10-25T14:13:05.849Z,99872.51
2017-10-25T14:15:41.339Z,99868.77
2017-10-25T14:18:15.763Z,99881.14
2017-10-25T14:20:50.230Z,99880.95
2017-10-25T14:23:25.759Z,99876.59
2017-10-25T14:26:00.409Z,99879.06
2017-10-25T14:28:42.165Z,99871.56
2017-10-25T14:31:16.730Z,99868.16
2017-10-25T14:33:51.163Z,99876.23
2017-10-25T14:36:25.659Z,99871.78
2017-10-25T14:39:00.175Z,99874.77
2017-10-25T14:41:34.734Z,99873.34
2017-10-25T14:44:09.119Z,99876.58
2017-10-25T14:46:43.383Z,99869.50
2017-10-25T14:49:17.836Z,99868.12
2017-10-25T14:51:52.221Z,99859.08
2017-10-25T14:54:26.914Z,99854.79
2017-10-25T14:57:03.836Z,99843.46
2017-10-25T14:59:39.346Z,99845.61
2017-10-25T15:02:13.951Z,99830.97
2017-10-25T15:04:48.485Z,99856.14
2017-10-25T15:07:22.957Z,99863.19
2017-10-25T15:09:58.151Z,99865.98
2017-10-25T15:12:32.883Z,99871.92
2017-10-25T15:15:14.665Z,99874.02
2017-10-25T15:17:49.273Z,99872.01
2017-10-25T15:20:35.247Z,99866.70
2017-10-25T15:23:09.729Z,99871.25
2017-10-25T15:25:44.618Z,99872.60
2017-10-25T15:28:19.542Z,99873.01
2017-10-25T15:30:53.995Z,99872.52
2017-10-25T15:33:28.583Z,99871.21
2017-10-25T15:36:03.551Z,99871.65
2017-10-25T15:38:37.979Z,99874.98
2017-10-25T15:41:12.069Z,99868.73
2017-10-25T15:43:46.766Z,99870.48
2017-10-25T15:46:21.411Z,99874.77
2017-10-25T15:48:58.922Z,99868.93
2017-10-25T15:51:33.589Z,99871.45
2017-10-25T15:54:08.710Z,99872.72
2017-10-25T15:56:43.291Z,99863.44
2017-10-25T15:59:17.892Z,99859.97
2017-10-25T16:01:52.340Z,99855.75
2017-10-25T16:04:26.991Z,99858.67
2017-10-25T16:07:01.373Z,99848.94
2017-10-25T16:09:36.437Z,99857.48
2017-10-25T16:12:11.538Z,99860.80
2017-10-25T16:14:46.182Z,99859.64
2017-10-25T16:17:20.626Z,99860.14
2017-10-25T16:19:55.182Z,99851.70
2017-10-25T16:22:29.667Z,99857.22
2017-10-25T16:25:03.907Z,99846.27
2017-10-25T16:27:43.799Z,99839.20
2017-10-25T16:30:18.306Z,99853.05
2017-10-25T16:32:52.888Z,99855.36
2017-10-25T16:35:27.326Z,99858.23
2017-10-25T16:38:02.012Z,99870.59
2017-10-25T16:40:36.469Z,99870.45
2017-10-25T16:43:10.702Z,99872.41
2017-10-25T16:45:44.996Z,99882.78
2017-10-25T16:48:19.375Z,99877.63
2017-10-25T16:50:53.966Z,99881.41
2017-10-25T16:53:28.403Z,99886.72
2017-10-25T16:56:04.517Z,99878.26
2017-10-25T16:58:38.937Z,99880.16
2017-10-25T17:01:13.383Z,99883.58
2017-10-25T17:03:47.734Z,99884.92
2017-10-25T17:06:22.159Z,99868.70
2017-10-25T17:08:56.595Z,99883.23
2017-10-25T17:11:31.124Z,99879.25
2017-10-25T17:14:05.590Z,99873.17
2017-10-25T17:16:40.011Z,99880.86
2017-10-25T17:19:15.007Z,99888.69
2017-10-25T17:21:49.469Z,99895.09
2017-10-25T17:24:24.059Z,99890.86
2017-10-25T17:26:58.279Z,99889.54
2017-10-25T17:29:32.835Z,99893.92
2017-10-25T17:32:07.266Z,99894.63
2017-10-25T17:34:41.549Z,99893.25
2017-10-25T17:37:16.059Z,99889.41
2017-10-25T17:39:50.522Z,99900.83
2017-10-25T17:42:25.035Z,99892.15
2017-10-25T17:44:59.638Z,99903.81
2017-10-25T17:47:34.886Z,99899.97
2017-10-25T17:50:09.447Z,99895.54
2017-10-25T17:52:44.581Z,99903.52
2017-10-25T17:55:19.331Z,99911.16
2017-10-25T17:57:53.798Z,99909.47
2017-10-25T18:00:28.283Z,99911.87
2017-10-25T18:03:02.821Z,99930.73
2017-10-25T18:05:37.220Z,99936.25
2017-10-25T18:08:12.386Z,99917.95
2017-10-25T18:10:46.871Z,99901.64
2017-10-25T18:13:21.998Z,99895.63
2017-10-25T18:15:57.300Z,99910.49
2017-10-25T18:18:31.795Z,99922.25
2017-10-25T18:21:06.259Z,99903.44
2017-10-25T18:23:41.202Z,99905.35
2017-10-25T18:26:15.815Z,99910.81
2017-10-25T18:28:50.235Z,99909.49
2017-10-25T18:31:27.275Z,99915.97
2017-10-25T18:34:02.671Z,99921.90
2017-10-25T18:36:37.247Z,99920.84
2017-10-25T18:39:12.595Z,99922.63
2017-10-25T18:41:47.117Z,99918.73
2017-10-25T18:44:21.779Z,99922.69
2017-10-25T18:46:56.342Z,99920.62
2017-10-25T18:49:30.970Z,99919.60
2017-10-25T18:52:05.605Z,99916.84
2017-10-25T18:54:40.037Z,99912.27
2017-10-25T18:57:14.551Z,99909.06
2017-10-25T18:59:49.198Z,99913.00
2017-10-25T19:02:25.127Z,99914.79
2017-10-25T19:04:59.628Z,99922.09
2017-10-25T19:07:34.708Z,99918.92
2017-10-25T19:10:11.477Z,99929.62
2017-10-25T19:12:46.042Z,99925.62
2017-10-25T19:15:20.445Z,99934.69
2017-10-25T19:17:55.542Z,99932.49
2017-10-25T19:20:30.658Z,99936.41
2017-10-25T19:23:06.160Z,99936.38
2017-10-25T19:25:40.708Z,99928.70
2017-10-25T19:28:15.263Z,99939.67
2017-10-25T19:30:49.804Z,99929.72
2017-10-25T19:33:24.231Z,99923.69
2017-10-25T19:35:58.728Z,99920.45
2017-10-25T19:38:33.126Z,99913.62
2017-10-25T19:41:07.517Z,99922.49
2017-10-25T19:43:42.786Z,99907.47
2017-10-25T19:46:17.514Z,99912.34
2017-10-25T19:48:53.263Z,99914.64
2017-10-25T19:51:28.638Z,99921.39
2017-10-25T19:54:03.238Z,99924.92
2017-10-25T19:56:37.767Z,99916.80
2017-10-25T19:59:12.159Z,99933.38
2017-10-25T20:01:46.830Z,99946.80
2017-10-25T20:04:21.643Z,99951.33
2017-10-25T20:06:56.086Z,99952.61
2017-10-25T20:09:32.035Z,99952.61
2017-10-25T20:12:06.610Z,99949.44
2017-10-25T20:14:41.047Z,99959.24
2017-10-25T20:17:16.430Z,99945.72
2017-10-25T20:19:50.986Z,99959.35
2017-10-25T20:22:25.403Z,99967.27
2017-10-25T20:25:00.060Z,99970.45
2017-10-25T20:27:34.517Z,99975.63
2017-10-25T20:30:09.550Z,99986.30
2017-10-25T20:32:44.182Z,99986.23
2017-10-25T20:35:18.643Z,99982.09
2017-10-25T20:37:53.707Z,99980.84
2017-10-25T20:40:28.287Z,99983.52
2017-10-25T20:43:02.743Z,99990.30
2017-10-25T20:45:37.171Z,99973.38
2017-10-25T20:48:11.720Z,99961.61
2017-10-25T20:50:46.343Z,99997.05
2017-10-25T20:53:20.879Z,99992.00
2017-10-25T20:55:55.281Z,99993.84
2017-10-25T20:58:30.011Z,99994.34
2017-10-25T21:01:04.531Z,99999.22
2017-10-25T21:03:39.892Z,99999.69
2017-10-25T21:06:14.451Z,99998.16
2017-10-25T21:08:49.027Z,100008.77
2017-10-25T21:11:23.700Z,100002.01
2017-10-25T21:13:58.223Z,100006.47
2017-10-25T21:16:33.211Z,100006.23
2017-10-25T21:19:07.846Z,100007.31
2017-10-25T21:21:42.302Z,100003.14
2017-10-25T21:24:16.811Z,99997.26
2017-10-25T21:26:51.278Z,100005.34
2017-10-25T21:29:25.885Z,100005.56
2017-10-25T21:32:00.642Z,100001.03
2017-10-25T21:34:35.148Z,100001.16
2017-10-25T21:37:09.647Z,100000.92
2017-10-25T21:39:44.111Z,100004.15
2017-10-25T21:42:18.544Z,100010.72
2017-10-25T21:44:53.112Z,100009.61
2017-10-25T21:47:27.528Z,100009.17
2017-10-25T21:50:01.960Z,100011.80
2017-10-25T21:52:36.412Z,100010.94
2017-10-25T21:55:10.889Z,100003.09
2017-10-25T21:57:45.454Z,100018.50
2017-10-25T22:00:19.960Z,99999.41
2017-10-25T22:02:54.527Z,100014.02
2017-10-25T22:05:29.397Z,100021.32
2017-10-25T22:08:03.777Z,100023.78
2017-10-25T22:10:38.290Z,100018.84
2017-10-25T22:13:12.924Z,100021.21
2017-10-25T22:15:47.380Z,100019.73
2017-10-25T22:18:22.119Z,100021.64
2017-10-25T22:20:56.887Z,100022.51
2017-10-25T22:23:31.471Z,100024.39
2017-10-25T22:26:06.007Z,100024.43
2017-10-25T22:28:40.526Z,100025.97
2017-10-25T22:31:16.536Z,100032.36
2017-10-25T22:33:50.935Z,100033.83
2017-10-25T22:36:26.227Z,100031.14
2017-10-25T22:39:01.299Z,100033.17
2017-10-25T22:41:36.234Z,100031.58
2017-10-25T22:44:10.699Z,100030.62
2017-10-25T22:46:45.137Z,100022.25
2017-10-25T22:49:19.687Z,100026.52
2017-10-25T22:51:54.166Z,100020.16
2017-10-25T22:54:28.826Z,100031.61
2017-10-25T22:57:03.259Z,100029.38
2017-10-25T22:59:37.823Z,100032.55
2017-10-25T23:02:11.977Z,100031.40
2017-10-25T23:04:46.420Z,100034.86
2017-10-25T23:07:20.811Z,100034.30
2017-10-25T23:09:55.251Z,100018.24
2017-10-25T23:12:29.790Z,100030.63
2017-10-25T23:15:09.347Z,100032.44
2017-10-25T23:17:43.744Z,100033.81
2017-10-25T23:20:18.218Z,100034.69
2017-10-25T23:22:52.715Z,100028.16
2017-10-25T23:25:27.587Z,100035.66
2017-10-25T23:28:02.067Z,100034.05
2017-10-25T23:30:36.545Z,100038.78
2017-10-25T23:33:11.461Z,100044.85
2017-10-25T23:35:46.095Z,100047.06
2017-10-25T23:38:21.860Z,100010.19
2017-10-25T23:40:56.406Z,100045.70
2017-10-25T23:43:31.067Z,100056.24
2017-10-25T23:46:05.464Z,100041.66
2017-10-25T23:48:40.070Z,100029.61
2017-10-25T23:51:14.481Z,100029.34
2017-10-25T23:53:49.014Z,100034.36
2017-10-25T23:56:23.419Z,100050.45
2017-10-25T23:58:57.844Z,100062.81
